createdAt,value
2019-05-30T00:02:20.177Z,15.40
2019-05-30T00:07:27.452Z,15.40
2019-05-30T00:12:28.639Z,15.40
2019-05-30T00:17:37.084Z,15.40
2019-05-30T00:23:09.254Z,15.40
2019-05-30T00:28:10.706Z,15.30
2019-05-30T00:33:23.150Z,15.30
2019-05-30T00:38:27.799Z,15.30
2019-05-30T00:43:38.079Z,15.30
2019-05-30T00:48:39.560Z,15.30
2019-05-30T00:53:41.947Z,15.40
2019-05-30T00:58:43.416Z,15.30
2019-05-30T01:03:45.829Z,15.30
2019-05-30T01:08:48.211Z,15.30
2019-05-30T01:13:55.351Z,15.30
2019-05-30T01:19:00.881Z,15.20
2019-05-30T01:24:03.493Z,15.10
2019-05-30T01:29:07.932Z,15.00
2019-05-30T01:34:12.492Z,14.90
2019-05-30T01:39:15.826Z,14.80
2019-05-30T01:44:29.245Z,14.70
2019-05-30T01:49:34.712Z,14.70
2019-05-30T01:54:36.185Z,14.60
2019-05-30T01:59:37.547Z,14.60
2019-05-30T02:04:41.887Z,14.50
2019-05-30T02:09:49.529Z,14.50
2019-05-30T02:14:54.023Z,14.30
2019-05-30T02:20:05.718Z,14.20
2019-05-30T02:25:10.629Z,14.10
2019-05-30T02:30:14.847Z,14.00
2019-05-30T02:35:16.858Z,13.90
2019-05-30T02:40:24.276Z,13.90
2019-05-30T02:45:25.708Z,13.90
2019-05-30T02:51:12.828Z,13.80
2019-05-30T02:56:17.437Z,13.70
2019-05-30T03:01:18.846Z,13.70
2019-05-30T03:06:31.056Z,13.60
2019-05-30T03:11:32.506Z,13.60
2019-05-30T03:16:36.766Z,13.60
2019-05-30T03:21:41.305Z,13.60
2019-05-30T03:26:45.849Z,13.60
2019-05-30T03:31:52.693Z,13.60
2019-05-30T03:36:57.684Z,13.70
2019-05-30T03:42:15.621Z,13.70
2019-05-30T03:47:21.047Z,13.70
2019-05-30T03:52:24.612Z,13.70
2019-05-30T03:57:43.050Z,13.70
2019-05-30T04:03:10.810Z,13.70
2019-05-30T04:08:38.859Z,13.70
2019-05-30T04:13:48.858Z,13.70
2019-05-30T04:18:53.264Z,13.80
2019-05-30T04:23:54.539Z,13.80
2019-05-30T04:28:58.996Z,13.90
2019-05-30T04:34:00.258Z,14.00
2019-05-30T04:39:01.605Z,14.10
2019-05-30T04:44:02.982Z,14.20
2019-05-30T04:49:07.358Z,14.20
2019-05-30T04:54:14.037Z,14.30
2019-05-30T04:59:19.806Z,14.40
2019-05-30T05:04:28.947Z,14.40
2019-05-30T05:09:38.065Z,14.50
2019-05-30T05:14:45.344Z,14.50
2019-05-30T05:19:52.685Z,14.70
2019-05-30T05:25:09.379Z,14.80
2019-05-30T05:30:27.957Z,14.90
2019-05-30T05:35:29.353Z,15.10
2019-05-30T05:40:36.471Z,15.10
2019-05-30T05:45:41.076Z,15.20
2019-05-30T05:50:42.469Z,15.40
2019-05-30T05:55:47.012Z,15.60
2019-05-30T06:00:59.571Z,15.70
2019-05-30T06:06:01.945Z,16.00
2019-05-30T06:11:04.514Z,16.30
2019-05-30T06:16:05.783Z,16.30
2019-05-30T06:21:13.119Z,16.40
2019-05-30T06:26:17.808Z,16.50
2019-05-30T06:31:20.329Z,16.50
2019-05-30T06:36:29.226Z,16.40
2019-05-30T06:41:49.581Z,16.30
2019-05-30T06:46:51.010Z,16.30
2019-05-30T06:51:58.501Z,16.20
2019-05-30T06:57:03.544Z,16.30
2019-05-30T07:02:10.600Z,16.40
2019-05-30T07:07:12.270Z,16.60
2019-05-30T07:12:15.804Z,16.60
2019-05-30T07:17:20.317Z,16.50
2019-05-30T07:22:29.820Z,16.40
2019-05-30T07:27:32.030Z,16.30
2019-05-30T07:32:34.144Z,16.30
2019-05-30T07:37:46.691Z,16.40
2019-05-30T07:42:48.876Z,16.70
2019-05-30T07:47:50.073Z,17.00
2019-05-30T07:52:54.765Z,17.30
2019-05-30T07:57:56.024Z,17.60
2019-05-30T08:02:59.580Z,17.90
2019-05-30T08:08:04.296Z,18.00
2019-05-30T08:13:31.372Z,18.00
2019-05-30T08:18:38.789Z,17.90
2019-05-30T08:23:46.420Z,17.90
2019-05-30T08:28:50.934Z,17.80
2019-05-30T08:33:58.440Z,17.70
2019-05-30T08:38:59.664Z,17.50
2019-05-30T08:44:15.024Z,17.30
2019-05-30T08:49:16.308Z,17.30
2019-05-30T08:54:20.724Z,17.20
2019-05-30T08:59:25.974Z,17.10
2019-05-30T09:04:27.363Z,17.10
2019-05-30T09:09:28.595Z,17.10
2019-05-30T09:14:30.017Z,17.20
2019-05-30T09:19:33.301Z,17.50
2019-05-30T09:24:47.899Z,18.30
2019-05-30T09:30:05.685Z,19.50
2019-05-30T09:35:15.475Z,21.10
2019-05-30T09:40:17.830Z,22.10
2019-05-30T09:45:21.062Z,22.20
2019-05-30T09:50:23.887Z,22.20
2019-05-30T09:55:27.328Z,22.00
2019-05-30T10:00:29.508Z,21.90
2019-05-30T10:05:32.002Z,22.10
2019-05-30T10:10:40.542Z,22.60
2019-05-30T10:15:52.590Z,23.70
2019-05-30T10:20:55.140Z,24.70
2019-05-30T10:25:57.674Z,25.60
2019-05-30T10:30:59.551Z,25.50
2019-05-30T10:36:02.084Z,24.90
2019-05-30T10:41:15.860Z,24.60
2019-05-30T10:46:22.885Z,24.70
2019-05-30T10:51:24.320Z,24.90
2019-05-30T10:56:31.480Z,24.70
2019-05-30T11:01:35.818Z,24.50
2019-05-30T11:07:01.291Z,24.50
2019-05-30T11:11:53.253Z,24.60
2019-05-30T11:16:57.824Z,25.10
2019-05-30T11:22:10.369Z,25.50
2019-05-30T11:27:11.760Z,25.20
2019-05-30T11:32:19.413Z,25.00
2019-05-30T11:37:21.750Z,24.40
2019-05-30T11:42:26.280Z,24.00
2019-05-30T11:47:27.812Z,23.90
2019-05-30T11:52:30.183Z,23.90
2019-05-30T11:57:33.728Z,23.70
2019-05-30T12:02:38.113Z,23.50
2019-05-30T12:07:50.932Z,23.40
2019-05-30T12:12:55.277Z,23.60
2019-05-30T12:18:07.264Z,23.50
2019-05-30T12:23:14.532Z,23.50
2019-05-30T12:28:18.937Z,23.70
2019-05-30T12:33:29.634Z,23.50
2019-05-30T12:38:34.175Z,24.20
2019-05-30T12:43:36.638Z,25.10
2019-05-30T12:48:44.433Z,25.10
2019-05-30T12:53:49.021Z,25.20
2019-05-30T12:58:56.579Z,26.20
2019-05-30T13:04:04.101Z,26.60
2019-05-30T13:09:07.377Z,26.30
2019-05-30T13:14:18.562Z,25.60
2019-05-30T13:19:44.772Z,25.00
2019-05-30T13:24:59.635Z,24.50
2019-05-30T13:30:02.277Z,25.10
2019-05-30T13:35:10.176Z,26.30
2019-05-30T13:40:24.337Z,27.20
2019-05-30T13:45:15.648Z,27.60
2019-05-30T13:50:17.273Z,27.50
2019-05-30T13:55:32.170Z,27.50
2019-05-30T14:00:39.284Z,27.90
2019-05-30T14:05:59.948Z,28.80
2019-05-30T14:11:04.626Z,28.10
2019-05-30T14:16:16.490Z,26.50
2019-05-30T14:21:17.979Z,26.40
2019-05-30T14:26:26.244Z,26.90
2019-05-30T14:31:27.701Z,27.30
2019-05-30T14:36:39.397Z,26.80
2019-05-30T14:41:42.914Z,27.00
2019-05-30T14:46:45.498Z,27.20
2019-05-30T14:51:48.039Z,27.30
2019-05-30T14:56:50.450Z,26.80
2019-05-30T15:01:52.868Z,26.00
2019-05-30T15:07:14.175Z,25.20
2019-05-30T15:12:18.760Z,26.00
2019-05-30T15:17:20.316Z,27.70
2019-05-30T15:22:27.415Z,29.20
2019-05-30T15:27:34.973Z,30.20
2019-05-30T15:32:36.282Z,30.30
2019-05-30T15:38:04.362Z,29.90
2019-05-30T15:43:15.550Z,29.70
2019-05-30T15:48:20.402Z,29.30
2019-05-30T15:53:22.896Z,28.60
2019-05-30T15:58:27.289Z,27.60
2019-05-30T16:03:29.688Z,26.50
2019-05-30T16:08:34.200Z,25.50
2019-05-30T16:13:40.591Z,25.80
2019-05-30T16:18:42.993Z,25.40
2019-05-30T16:23:44.540Z,24.60
2019-05-30T16:28:46.231Z,24.10
2019-05-30T16:33:50.896Z,23.90
2019-05-30T16:38:55.401Z,24.00
2019-05-30T16:44:02.880Z,24.30
2019-05-30T16:49:23.563Z,24.00
2019-05-30T16:54:29.289Z,23.90
2019-05-30T16:59:36.580Z,23.60
2019-05-30T17:04:55.250Z,23.60
2019-05-30T17:09:56.526Z,23.80
2019-05-30T17:14:57.865Z,23.90
2019-05-30T17:20:00.407Z,23.90
2019-05-30T17:25:09.593Z,23.90
2019-05-30T17:30:14.378Z,23.70
2019-05-30T17:35:17.926Z,23.70
2019-05-30T17:40:39.107Z,23.50
2019-05-30T17:45:29.456Z,23.30
2019-05-30T17:50:45.049Z,22.90
2019-05-30T17:55:48.374Z,22.70
2019-05-30T18:00:50.745Z,22.60
2019-05-30T18:06:07.590Z,22.70
2019-05-30T18:11:18.250Z,22.50
2019-05-30T18:16:21.580Z,22.10
2019-05-30T18:21:23.431Z,21.90
2019-05-30T18:26:25.443Z,21.60
2019-05-30T18:31:28.071Z,21.40
2019-05-30T18:36:41.508Z,21.30
2019-05-30T18:41:51.680Z,21.20
2019-05-30T18:46:56.202Z,21.10
2019-05-30T18:51:57.655Z,21.00
2019-05-30T18:56:58.880Z,21.00
2019-05-30T19:02:06.467Z,20.90
2019-05-30T19:07:11.127Z,20.80
2019-05-30T19:12:18.456Z,20.60
2019-05-30T19:17:19.792Z,20.50
2019-05-30T19:22:24.341Z,20.40
2019-05-30T19:27:26.762Z,20.30
2019-05-30T19:32:31.280Z,20.10
2019-05-30T19:37:35.848Z,20.00
2019-05-30T19:42:40.792Z,20.00
2019-05-30T19:47:42.155Z,19.90
2019-05-30T19:52:47.016Z,19.80
2019-05-30T19:57:51.536Z,19.80
2019-05-30T20:02:56.159Z,19.70
2019-05-30T20:07:57.552Z,19.60
2019-05-30T20:13:00.875Z,19.60
2019-05-30T20:18:03.377Z,19.50
2019-05-30T20:23:06.651Z,19.50
2019-05-30T20:28:11.149Z,19.40
2019-05-30T20:33:15.708Z,19.30
2019-05-30T20:38:20.251Z,19.20
2019-05-30T20:43:22.653Z,19.10
2019-05-30T20:48:30.120Z,19.00
2019-05-30T20:53:33.545Z,18.90
2019-05-30T20:58:40.030Z,18.90
2019-05-30T21:03:47.081Z,18.90
2019-05-30T21:08:51.581Z,18.80
2019-05-30T21:13:53.522Z,18.80
2019-05-30T21:19:06.075Z,18.80
2019-05-30T21:24:10.619Z,18.70
2019-05-30T21:29:18.140Z,18.60
2019-05-30T21:34:46.489Z,18.50
2019-05-30T21:39:51.285Z,18.50
2019-05-30T21:44:53.009Z,18.40
2019-05-30T21:50:07.014Z,18.30
2019-05-30T21:55:12.372Z,18.30
2019-05-30T22:00:50.980Z,18.30
2019-05-30T22:05:52.685Z,18.30
2019-05-30T22:10:57.219Z,18.30
2019-05-30T22:16:01.761Z,18.30
2019-05-30T22:21:04.560Z,18.30
2019-05-30T22:26:06.398Z,18.30
2019-05-30T22:31:18.712Z,18.20
2019-05-30T22:36:46.775Z,18.10
2019-05-30T22:41:57.948Z,18.00
2019-05-30T22:47:01.258Z,18.00
2019-05-30T22:52:03.871Z,17.90
2019-05-30T22:57:11.099Z,17.90
2019-05-30T23:02:18.403Z,17.80
2019-05-30T23:07:22.841Z,17.80
2019-05-30T23:12:33.524Z,17.70
2019-05-30T23:17:34.972Z,17.70
2019-05-30T23:22:39.337Z,17.60
2019-05-30T23:27:45.679Z,17.60
2019-05-30T23:32:50.545Z,17.50
2019-05-30T23:38:06.974Z,17.50
2019-05-30T23:43:10.287Z,17.50
2019-05-30T23:48:15.084Z,17.40
2019-05-30T23:53:16.607Z,17.40
2019-05-30T23:58:22.434Z,17.30
